Time;durP1;ratioP1;P1;durP2;ratioP2;P2;SDS_P1;SDS_P2;PMS_P1;PMS_P2;Temp;Humidity;BMP_temperature;BMP_pressure;BME280_temperature;BME280_humidity;BME280_pressure;Samples;Min_cycle;Max_cycle;Signal;HPM_P1;HPM_P2
2022/08/12 00:43:55;;;;;;;;;;;22.00;65.20;;;21.37;60.15;96457.06;4183355;33;20210;-85
2022/08/12 00:54:02;;;;;;;;;;;22.00;65.30;;;21.36;60.29;96454.63;4184196;34;20239;-85
2022/08/12 00:56:31;;;;;;;;;;;22.00;65.20;;;21.35;60.30;96459.38;4179115;34;19904;-84
2022/08/12 00:59:30;;;;;;;;;;;22.00;65.20;;;21.35;60.11;96453.81;4178984;34;20131;-85
2022/08/12 01:02:01;;;;;;;;;;;21.90;65.10;;;21.34;60.32;96463.31;4173184;34;20109;-85
2022/08/12 01:12:24;;;;;;;;;;;21.90;65.10;;;21.33;60.25;96466.41;4155925;34;19926;-85
2022/08/12 01:14:53;;;;;;;;;;;21.90;65.30;;;21.32;60.44;96460.03;4173691;34;20085;-84
2022/08/12 01:17:23;;;;;;;;;;;21.90;65.30;;;21.31;60.35;96452.84;4155771;34;19940;-85
2022/08/12 01:19:53;;;;;;;;;;;21.90;65.30;;;21.32;60.10;96465.63;4178943;34;20117;-85
2022/08/12 01:22:28;;;;;;;;;;;21.90;65.30;;;21.31;60.43;96466.75;4155548;34;19903;-85
2022/08/12 01:25:05;;;;;;;;;;;21.90;65.30;;;21.30;60.20;96457.56;4179723;34;20108;-85
2022/08/12 01:27:35;;;;;;;;;;;21.90;65.20;;;21.29;60.31;96455.13;4178535;34;19911;-85
2022/08/12 01:30:06;;;;;;;;;;;21.90;65.40;;;21.29;60.44;96450.41;4179636;34;20550;-85
2022/08/12 01:32:36;;;;;;;;;;;21.90;65.40;;;21.28;60.42;96453.50;4155388;33;20025;-84
2022/08/12 01:35:10;;;;;;;;;;;21.90;65.30;;;21.27;60.63;96458.25;4183415;33;20090;-86
2022/08/12 01:37:46;;;;;;;;;;;21.90;65.30;;;21.28;60.25;96456.28;4183080;33;19911;-85
2022/08/12 01:40:16;;;;;;;;;;;21.90;65.30;;;21.27;60.50;96454.66;4206603;33;20044;-85
2022/08/12 01:42:47;;;;;;;;;;;21.90;65.40;;;21.27;60.46;96463.84;4182742;33;19909;-85
2022/08/12 01:45:16;;;;;;;;;;;21.90;65.30;;;21.26;60.20;96464.16;4206585;33;19903;-85
2022/08/12 01:48:05;;;;;;;;;;;21.90;65.40;;;21.25;60.37;96455.00;4205931;33;20082;-85
2022/08/12 01:50:41;;;;;;;;;;;21.90;65.30;;;21.25;60.33;96454.16;4155759;34;20167;-85
2022/08/12 01:53:11;;;;;;;;;;;21.90;65.40;;;21.25;60.32;96459.72;4177922;34;20371;-85
2022/08/12 01:55:42;;;;;;;;;;;21.90;65.20;;;21.25;60.34;96459.72;4178577;34;20080;-85
2022/08/12 01:58:25;;;;;;;;;;;21.90;65.40;;;21.24;60.58;96453.34;4179221;34;20183;-85
2022/08/12 02:00:58;;;;;;;;;;;21.80;65.30;;;21.23;60.57;96456.50;4178420;34;20160;-85
2022/08/12 02:12:33;;;;;;;;;;;21.80;65.20;;;21.21;60.35;96444.88;4176924;34;20056;-85
2022/08/12 02:15:11;;;;;;;;;;;21.80;65.30;;;21.21;60.33;96447.66;4177982;34;19909;-85
2022/08/12 02:17:56;;;;;;;;;;;21.80;65.20;;;21.20;60.37;96443.22;4201296;33;20054;-86
2022/08/12 02:20:32;;;;;;;;;;;21.80;65.30;;;21.20;60.34;96440.44;4178365;34;19999;-85
2022/08/12 02:23:00;;;;;;;;;;;21.80;65.30;;;21.19;60.13;96447.16;4177692;34;20115;-85
2022/08/12 02:25:33;;;;;;;;;;;21.80;65.20;;;21.18;60.24;96443.53;4178240;34;19930;-86
2022/08/12 02:28:03;;;;;;;;;;;21.80;65.30;;;21.18;60.44;96442.75;4155160;34;19903;-85
2022/08/12 02:30:35;;;;;;;;;;;21.80;65.30;;;21.17;60.39;96441.94;4155261;34;19903;-85
2022/08/12 02:33:05;;;;;;;;;;;21.80;65.40;;;21.15;60.49;96438.66;4154788;34;20458;-85
2022/08/12 02:35:35;;;;;;;;;;;21.80;65.40;;;21.18;60.62;96439.97;4177987;34;19910;-85
2022/08/12 02:38:07;;;;;;;;;;;21.80;65.30;;;21.15;60.27;96433.91;4177850;34;20039;-84
2022/08/12 02:40:38;;;;;;;;;;;21.80;65.40;;;21.14;60.52;96432.25;4185439;33;20237;-84
2022/08/12 02:43:14;;;;;;;;;;;21.80;65.50;;;21.14;60.46;96437.03;4182395;33;20195;-84
2022/08/12 02:45:46;;;;;;;;;;;21.70;65.30;;;21.13;60.58;96430.63;4205708;33;20135;-84
2022/08/12 02:48:19;;;;;;;;;;;21.70;65.50;;;21.14;60.53;96431.47;4206553;33;20257;-84
2022/08/12 02:50:52;;;;;;;;;;;21.70;65.30;;;21.13;60.33;96413.94;4182577;33;20185;-84
2022/08/12 02:53:20;;;;;;;;;;;21.70;65.30;;;21.12;60.54;96412.28;4182018;33;19910;-85
2022/08/12 02:55:49;;;;;;;;;;;21.70;65.50;;;21.12;60.38;96420.66;4182549;33;19909;-85
2022/08/12 02:58:19;;;;;;;;;;;21.70;65.40;;;21.12;60.32;96417.84;4204925;33;20124;-85
2022/08/12 03:00:48;;;;;;;;;;;21.70;65.20;;;21.11;60.62;96416.22;4205602;33;20083;-85
2022/08/12 03:03:16;;;;;;;;;;;21.70;65.50;;;21.10;60.55;96409.06;4205979;33;19903;-85
2022/08/12 03:05:49;;;;;;;;;;;21.70;65.30;;;21.11;60.52;96412.63;4205499;33;20139;-84
2022/08/12 03:08:20;;;;;;;;;;;21.70;65.50;;;21.10;60.57;96414.63;4205326;33;19903;-85
2022/08/12 03:10:50;;;;;;;;;;;21.70;65.30;;;21.09;60.51;96415.78;4205515;33;19910;-84
2022/08/12 03:13:20;;;;;;;;;;;21.70;65.40;;;21.09;60.44;96414.94;4204974;33;19903;-85
2022/08/12 03:15:49;;;;;;;;;;;21.70;65.40;;;21.08;60.49;96411.34;4205530;33;20155;-84
2022/08/12 03:18:21;;;;;;;;;;;21.70;65.40;;;21.08;60.48;96414.13;4205357;33;19903;-85
2022/08/12 03:20:49;;;;;;;;;;;21.70;65.40;;;21.08;60.20;96414.13;4205375;33;19902;-85
2022/08/12 03:23:18;;;;;;;;;;;21.70;65.40;;;21.07;60.28;96423.63;4205773;33;19909;-85
2022/08/12 03:25:46;;;;;;;;;;;21.70;65.40;;;21.06;60.51;96408.06;4206079;33;20070;-85
2022/08/12 03:28:49;;;;;;;;;;;21.70;65.50;;;21.06;60.33;96408.06;4205233;33;19903;-85
2022/08/12 03:31:08;;;;;;;;;;;21.70;65.30;;;21.06;60.38;96416.44;4205372;33;20156;-85
2022/08/12 03:33:39;;;;;;;;;;;21.70;65.50;;;21.06;60.41;96410.88;4181603;33;19910;-84
2022/08/12 03:36:09;;;;;;;;;;;21.70;65.40;;;21.05;60.60;96411.19;4205373;33;19902;-84
2022/08/12 03:38:41;;;;;;;;;;;21.70;65.50;;;21.05;60.52;96423.16;4205895;33;20098;-84
2022/08/12 04:00:47;;;;;;;;;;;21.70;65.00;;;21.15;59.95;96416.41;4205714;33;19909;-84
2022/08/12 04:05:59;;;;;;;;;;;21.70;64.60;;;21.18;59.55;96420.47;4164400;33;20012;-84
2022/08/12 04:08:28;;;;;;;;;;;21.80;64.50;;;21.18;59.78;96412.13;4204655;33;20123;-84
2022/08/12 04:13:42;;;;;;;;;;;21.80;64.40;;;21.22;59.46;96413.09;4204418;33;19910;-84
2022/08/12 04:16:13;;;;;;;;;;;21.80;64.20;;;21.24;59.83;96407.97;4204860;33;19903;-84
2022/08/12 04:18:43;;;;;;;;;;;21.90;64.40;;;21.25;59.46;96409.63;4181664;33;20095;-84
2022/08/12 04:21:12;;;;;;;;;;;21.80;64.30;;;21.27;59.31;96413.72;4181560;33;19902;-85
2022/08/12 04:23:42;;;;;;;;;;;21.90;63.80;;;21.28;59.02;96417.31;4181132;33;20140;-85
2022/08/12 04:26:10;;;;;;;;;;;21.90;63.70;;;21.31;59.33;96419.44;4205697;33;20222;-84
2022/08/12 04:28:39;;;;;;;;;;;21.90;63.90;;;21.33;59.06;96419.06;4181382;33;20164;-84
2022/08/12 04:31:08;;;;;;;;;;;22.00;63.90;;;21.36;59.32;96418.41;4181624;33;19971;-84
2022/08/12 04:33:36;;;;;;;;;;;22.00;64.10;;;21.37;59.75;96434.78;4204158;33;20006;-85
2022/08/12 04:36:08;;;;;;;;;;;22.00;64.30;;;21.40;59.65;96434.13;4204695;33;20052;-85
2022/08/12 04:38:37;;;;;;;;;;;22.00;64.30;;;21.43;59.51;96439.00;4204626;33;19903;-85
2022/08/12 04:41:09;;;;;;;;;;;22.00;64.30;;;21.43;59.51;96433.44;4181461;33;19902;-85
2022/08/12 04:43:38;;;;;;;;;;;22.10;64.10;;;21.46;59.41;96435.56;4204294;33;20252;-85
2022/08/12 04:46:07;;;;;;;;;;;22.10;64.10;;;21.50;59.73;96440.44;4204526;33;19907;-85
2022/08/12 04:48:35;;;;;;;;;;;22.10;64.30;;;21.51;59.95;96434.56;4204388;33;19978;-84
2022/08/12 04:51:06;;;;;;;;;;;22.10;64.60;;;21.52;59.67;96435.34;4204514;33;20039;-83
2022/08/12 04:53:35;;;;;;;;;;;22.20;64.50;;;21.54;59.76;96438.63;4204129;33;20143;-83
2022/08/12 04:56:04;;;;;;;;;;;22.20;64.40;;;21.55;59.98;96434.69;4204530;33;19903;-84
2022/08/12 04:58:35;;;;;;;;;;;22.20;64.70;;;21.54;59.85;96433.06;4181274;33;19986;-85
2022/08/12 05:01:03;;;;;;;;;;;22.20;64.50;;;21.55;60.03;96434.69;4181315;33;20335;-85
2022/08/12 05:03:33;;;;;;;;;;;22.20;64.70;;;21.54;60.36;96428.31;4180676;33;19902;-85
2022/08/12 05:06:02;;;;;;;;;;;22.20;64.70;;;21.54;59.95;96427.47;4181282;33;19910;-85
2022/08/12 05:08:32;;;;;;;;;;;22.20;64.60;;;21.54;59.91;96433.06;4181063;33;20229;-85
2022/08/12 05:11:00;;;;;;;;;;;22.20;64.70;;;21.54;60.38;96433.88;4205374;33;19909;-85
2022/08/12 05:13:33;;;;;;;;;;;22.20;64.90;;;21.56;60.36;96439.13;4203863;33;20151;-85
2022/08/12 05:16:02;;;;;;;;;;;22.20;65.00;;;21.55;60.21;96432.75;4181202;33;19903;-86
2022/08/12 05:18:30;;;;;;;;;;;22.20;65.00;;;21.56;60.20;96431.56;4205170;33;20021;-85
2022/08/12 05:20:59;;;;;;;;;;;22.20;64.90;;;21.57;60.50;96432.38;4204397;33;20112;-85
2022/08/12 05:23:29;;;;;;;;;;;22.20;65.10;;;21.59;60.02;96441.22;4206833;33;19902;-86
2022/08/12 05:26:00;;;;;;;;;;;22.20;64.80;;;21.60;60.01;96432.56;4206650;33;19909;-85
2022/08/12 05:28:29;;;;;;;;;;;22.30;65.00;;;21.65;60.18;96434.31;4183381;33;19903;-85
2022/08/12 05:31:00;;;;;;;;;;;22.30;65.00;;;21.69;60.21;96426.94;4183308;33;20280;-85
2022/08/12 05:33:36;;;;;;;;;;;22.30;65.10;;;21.75;60.04;96433.94;4207086;33;20115;-85
2022/08/12 05:36:07;;;;;;;;;;;22.40;64.80;;;21.83;59.75;96425.88;4206418;33;20066;-85
2022/08/12 05:41:23;;;;;;;;;;;22.50;64.50;;;21.98;59.22;96425.25;4183195;33;19903;-85
2022/08/12 05:43:53;;;;;;;;;;;22.50;64.20;;;22.02;59.21;96426.19;4206110;33;19918;-85
2022/08/12 05:46:23;;;;;;;;;;;22.60;64.10;;;22.07;59.49;96426.00;4206380;33;19914;-85
2022/08/12 05:48:53;;;;;;;;;;;22.60;64.10;;;22.13;59.04;96426.63;4206415;33;20102;-85
2022/08/12 05:51:23;;;;;;;;;;;22.70;64.00;;;22.17;58.85;96422.00;4183167;33;19910;-85
2022/08/12 05:53:52;;;;;;;;;;;22.80;63.60;;;22.21;58.56;96424.91;4182778;33;20019;-85
2022/08/12 05:56:24;;;;;;;;;;;22.80;63.40;;;22.24;58.50;96421.44;4206286;33;19910;-85
2022/08/12 05:59:00;;;;;;;;;;;22.80;63.30;;;22.26;58.65;96416.34;4183037;33;20110;-85
2022/08/12 06:01:29;;;;;;;;;;;22.80;63.20;;;22.28;58.68;96413.22;4206150;33;19902;-85
2022/08/12 06:03:59;;;;;;;;;;;22.80;63.20;;;22.29;58.48;96418.44;4205791;33;20097;-85
2022/08/12 06:06:27;;;;;;;;;;;22.90;63.30;;;22.30;58.79;96424.84;4206075;33;19903;-85
2022/08/12 06:08:56;;;;;;;;;;;22.90;63.20;;;22.31;58.96;96426.47;4182950;33;20144;-85
2022/08/12 06:11:45;;;;;;;;;;;22.90;63.30;;;22.31;58.59;96421.69;4182967;33;20222;-85
2022/08/12 06:14:18;;;;;;;;;;;22.90;63.20;;;22.32;58.76;96425.31;4182954;33;20180;-85
2022/08/12 06:16:46;;;;;;;;;;;22.90;63.30;;;22.34;58.55;96429.38;4182764;33;19902;-86
2022/08/12 06:19:15;;;;;;;;;;;23.00;63.20;;;22.35;58.82;96430.19;4229366;33;19902;-85
2022/08/12 06:21:47;;;;;;;;;;;23.00;63.30;;;22.36;58.51;96427.06;4206052;33;19903;-86
2022/08/12 06:24:23;;;;;;;;;;;22.90;63.20;;;22.37;58.59;96425.94;4182262;33;19902;-85
2022/08/12 06:27:02;;;;;;;;;;;22.90;63.20;;;22.38;58.56;96421.97;4182783;33;19925;-85
2022/08/12 06:29:33;;;;;;;;;;;23.00;63.20;;;22.41;58.71;96425.22;4182588;33;20448;-85
2022/08/12 06:32:01;;;;;;;;;;;23.00;63.30;;;22.40;58.45;96406.88;4182404;33;19952;-84
2022/08/12 06:34:33;;;;;;;;;;;23.00;63.20;;;22.43;58.50;96417.34;4182534;33;19902;-85
2022/08/12 06:37:01;;;;;;;;;;;23.00;63.20;;;22.44;58.49;96407.84;4205899;33;20219;-85
2022/08/12 06:39:30;;;;;;;;;;;23.00;63.40;;;22.46;58.56;96408.31;4205965;33;20083;-85
2022/08/12 06:44:46;;;;;;;;;;;23.10;63.20;;;22.48;58.69;96408.78;4182882;33;20478;-85
2022/08/12 06:47:18;;;;;;;;;;;23.10;63.20;;;22.50;58.66;96417.63;4182266;33;20219;-85
2022/08/12 06:49:47;;;;;;;;;;;23.10;63.20;;;22.50;58.48;96412.84;4205556;33;20249;-85
2022/08/12 06:52:16;;;;;;;;;;;23.10;63.30;;;22.51;58.46;96408.09;4182064;33;19903;-85
2022/08/12 06:54:44;;;;;;;;;;;23.10;63.20;;;22.52;58.43;96407.75;4205738;33;20059;-85
2022/08/12 06:57:13;;;;;;;;;;;23.10;63.10;;;22.52;58.69;96404.16;4182207;33;19903;-85
2022/08/12 06:59:42;;;;;;;;;;;23.10;63.10;;;22.53;58.33;96400.19;4205619;33;19910;-85
2022/08/12 07:02:12;;;;;;;;;;;23.10;63.20;;;22.54;58.16;96401.81;4205128;33;19903;-86
2022/08/12 07:04:42;;;;;;;;;;;23.10;63.20;;;22.52;58.19;96402.16;4205637;33;19902;-86
2022/08/12 07:07:11;;;;;;;;;;;23.10;63.00;;;22.55;58.49;96406.25;4205595;33;20010;-85
2022/08/12 07:09:41;;;;;;;;;;;23.10;63.20;;;22.55;58.17;96406.25;4182657;33;20340;-85
2022/08/12 07:12:18;;;;;;;;;;;23.10;63.20;;;22.56;58.32;96399.50;4205196;33;20006;-85
2022/08/12 07:14:50;;;;;;;;;;;23.10;63.20;;;22.57;58.15;96403.13;4182378;33;20117;-85
2022/08/12 07:17:20;;;;;;;;;;;23.10;63.10;;;22.57;58.10;96401.13;4182083;33;20134;-85
2022/08/12 07:19:48;;;;;;;;;;;23.10;63.00;;;22.60;58.00;96402.41;4205462;33;20463;-85
2022/08/12 07:22:38;;;;;;;;;;;23.10;63.00;;;22.63;58.02;96394.19;4204966;33;20144;-85
2022/08/12 07:27:53;;;;;;;;;;;23.20;62.80;;;22.66;57.95;96399.06;4205352;33;19903;-85
2022/08/12 07:30:29;;;;;;;;;;;23.20;62.90;;;22.70;58.15;96403.97;4182271;33;19910;-85
2022/08/12 07:33:00;;;;;;;;;;;23.20;62.90;;;22.68;57.63;96393.94;4181511;33;20071;-85
2022/08/12 07:35:29;;;;;;;;;;;23.20;62.80;;;22.71;57.89;96402.81;4181897;33;19903;-85
2022/08/12 07:37:58;;;;;;;;;;;23.20;62.70;;;22.73;57.61;96394.91;4205104;33;20132;-85
2022/08/12 07:40:28;;;;;;;;;;;23.20;62.70;;;22.74;57.95;96396.53;4206275;33;20038;-85
2022/08/12 07:42:57;;;;;;;;;;;23.20;62.70;;;22.76;57.71;96395.03;4204785;33;20233;-85
2022/08/12 07:45:25;;;;;;;;;;;23.30;62.70;;;22.78;57.61;96395.50;4205693;33;19903;-85
2022/08/12 07:47:54;;;;;;;;;;;23.30;62.70;;;22.78;58.18;96391.91;4182231;33;19902;-86
2022/08/12 07:50:29;;;;;;;;;;;23.30;62.80;;;22.81;57.87;96396.78;4181824;33;20146;-86
2022/08/12 07:52:59;;;;;;;;;;;23.30;62.60;;;22.82;57.44;96396.44;4181242;33;19903;-85
2022/08/12 07:55:28;;;;;;;;;;;23.30;62.50;;;22.82;57.69;96392.81;4205097;33;20130;-86
2022/08/12 07:57:58;;;;;;;;;;;23.30;62.40;;;22.82;57.63;96387.25;4204879;33;19903;-85
2022/08/12 08:00:27;;;;;;;;;;;23.30;62.40;;;22.81;57.46;96388.41;4181647;33;20038;-86
2022/08/12 08:02:57;;;;;;;;;;;23.30;62.40;;;22.81;57.78;96380.03;4205384;33;19909;-86
2022/08/12 08:05:30;;;;;;;;;;;23.30;62.30;;;22.79;57.77;96382.34;4205040;33;19902;-86
2022/08/12 08:08:01;;;;;;;;;;;23.30;62.40;;;22.80;57.56;96381.19;4181756;33;20117;-85
2022/08/12 08:10:30;;;;;;;;;;;23.30;62.30;;;22.80;57.84;96384.81;4204890;33;19909;-86
2022/08/12 08:13:03;;;;;;;;;;;23.30;62.40;;;22.79;57.66;96374.78;4204477;33;20064;-86
2022/08/12 08:15:33;;;;;;;;;;;23.30;62.40;;;22.79;57.83;96380.38;4204942;33;19902;-85
2022/08/12 08:18:03;;;;;;;;;;;23.30;62.40;;;22.79;57.71;96388.75;4205100;33;20170;-85
2022/08/12 08:20:34;;;;;;;;;;;23.30;62.40;;;22.78;57.50;96380.75;4204972;33;20069;-85
2022/08/12 08:23:09;;;;;;;;;;;23.30;62.30;;;22.78;57.51;96380.75;4204292;33;19910;-85
2022/08/12 08:25:38;;;;;;;;;;;23.30;62.50;;;22.77;57.48;96379.91;4181540;33;19903;-85
2022/08/12 08:28:09;;;;;;;;;;;23.30;62.50;;;22.77;57.77;96384.69;4204800;33;19910;-87
2022/08/12 08:30:41;;;;;;;;;;;23.30;62.50;;;22.76;57.83;96385.84;4205629;33;19910;-86
2022/08/12 08:33:10;;;;;;;;;;;23.30;62.50;;;22.75;57.88;96379.44;4205100;33;19916;-86
2022/08/12 08:35:39;;;;;;;;;;;23.30;62.40;;;22.74;57.77;96385.38;4204698;33;19912;-86
2022/08/12 08:38:11;;;;;;;;;;;23.30;62.50;;;22.71;57.96;96377.69;4204299;33;19902;-86
2022/08/12 08:43:27;;;;;;;;;;;23.30;62.70;;;22.70;57.70;96376.06;4205105;33;20167;-85
2022/08/12 08:45:56;;;;;;;;;;;23.30;62.60;;;22.69;57.81;96372.47;4204690;33;20138;-85
2022/08/12 08:48:25;;;;;;;;;;;23.30;62.70;;;22.68;58.04;96373.63;4204646;33;20047;-86
2022/08/12 08:50:53;;;;;;;;;;;23.20;62.60;;;22.66;57.94;96364.78;4205432;33;19903;-86
2022/08/12 08:53:23;;;;;;;;;;;23.20;62.60;;;22.63;58.15;96366.28;4204094;33;19993;-85
2022/08/12 08:55:52;;;;;;;;;;;23.20;62.70;;;22.60;57.96;96366.97;4204621;33;20068;-86
2022/08/12 08:58:20;;;;;;;;;;;23.20;62.80;;;22.58;58.55;96363.69;4207271;33;20022;-86
2022/08/12 09:00:49;;;;;;;;;;;23.20;63.00;;;22.58;58.29;96354.53;4184196;33;20254;-86
2022/08/12 09:03:18;;;;;;;;;;;23.20;63.10;;;22.56;58.60;96366.03;4183775;33;19902;-86
2022/08/12 09:05:47;;;;;;;;;;;23.20;63.00;;;22.54;58.50;96354.38;4206976;33;20125;-86
2022/08/12 09:08:18;;;;;;;;;;;23.10;63.20;;;22.52;58.54;96354.75;4206792;33;20074;-86
2022/08/12 09:10:48;;;;;;;;;;;23.10;64.00;;;22.52;58.76;96348.38;4206996;33;20020;-86
2022/08/12 09:13:29;;;;;;;;;;;23.10;63.20;;;22.51;58.46;96346.72;4206392;33;20099;-85
2022/08/12 09:15:58;;;;;;;;;;;23.10;63.20;;;22.50;58.40;96350.69;4207855;33;20166;-86
2022/08/12 09:18:27;;;;;;;;;;;23.10;63.30;;;22.48;58.73;96353.00;4206834;33;19910;-85
2022/08/12 09:20:56;;;;;;;;;;;23.10;63.30;;;22.48;58.81;96350.19;4206886;33;19980;-85
2022/08/12 09:23:26;;;;;;;;;;;23.10;63.20;;;22.46;58.87;96349.72;4207189;33;19903;-85
2022/08/12 09:25:56;;;;;;;;;;;23.10;63.30;;;22.45;58.85;96342.50;4206865;33;20202;-85
2022/08/12 09:28:27;;;;;;;;;;;23.10;63.30;;;22.44;58.49;96346.47;4183206;33;19902;-85
2022/08/12 09:30:57;;;;;;;;;;;23.10;63.30;;;22.42;58.91;96344.03;4183857;33;19903;-86
2022/08/12 09:33:32;;;;;;;;;;;23.00;63.30;;;22.42;58.69;96348.78;4183404;33;19910;-86
2022/08/12 09:36:13;;;;;;;;;;;23.00;63.30;;;22.41;59.13;96341.53;4207575;33;20038;-86
2022/08/12 09:38:42;;;;;;;;;;;23.00;63.50;;;22.38;58.67;96343.88;4207324;33;20115;-86
2022/08/12 09:41:14;;;;;;;;;;;23.00;63.50;;;22.40;59.29;96346.31;4206566;33;19910;-86
2022/08/12 09:46:30;;;;;;;;;;;23.00;63.50;;;22.37;58.93;96342.25;4206455;33;20069;-87
2022/08/12 09:48:59;;;;;;;;;;;23.00;63.40;;;22.37;58.87;96336.66;4207348;33;20076;-87
2022/08/12 09:51:51;;;;;;;;;;;23.00;63.60;;;22.36;58.91;96335.03;4207275;33;19922;-87
2022/08/12 09:55:10;;;;;;;;;;;23.00;63.60;;;22.37;59.20;96330.25;4205017;33;20142;-85
2022/08/12 09:57:40;;;;;;;;;;;23.00;63.70;;;22.35;58.75;96330.63;4207180;33;19903;-86
2022/08/12 10:00:10;;;;;;;;;;;23.00;63.40;;;22.35;58.72;96335.38;4206200;33;20014;-86
2022/08/12 10:03:03;;;;;;;;;;;23.00;63.40;;;22.34;59.04;96330.94;4205468;33;20218;-86
2022/08/12 10:05:35;;;;;;;;;;;22.90;63.40;;;22.33;59.07;96332.94;4206312;33;20350;-87
2022/08/12 10:08:09;;;;;;;;;;;23.00;63.50;;;22.32;58.80;96317.34;4206900;33;19903;-85
2022/08/12 10:13:43;;;;;;;;;;;22.90;63.80;;;22.32;59.34;96322.94;4204712;33;19909;-85
2022/08/12 10:16:13;;;;;;;;;;;22.90;63.90;;;22.31;59.11;96312.94;4183382;33;20170;-85
2022/08/12 10:18:43;;;;;;;;;;;22.90;63.90;;;22.29;59.45;96306.06;4206947;33;20130;-85
2022/08/12 10:21:13;;;;;;;;;;;22.90;63.90;;;22.29;59.17;96303.28;4183456;33;19903;-86
2022/08/12 10:23:43;;;;;;;;;;;22.90;63.80;;;22.28;59.59;96299.66;4182314;33;19903;-86
2022/08/12 10:31:48;;;;;;;;;;;22.90;63.70;;;22.27;59.27;96298.03;4178131;34;19910;-85
2022/08/12 10:34:17;;;;;;;;;;;22.90;63.80;;;22.27;58.83;96297.22;4177633;34;19910;-85
2022/08/12 10:36:46;;;;;;;;;;;22.90;63.60;;;22.26;59.28;96287.25;4178188;34;20134;-86
2022/08/12 10:39:16;;;;;;;;;;;22.90;63.70;;;22.25;59.19;96292.00;4178836;34;20081;-85
2022/08/12 10:44:32;;;;;;;;;;;22.90;63.60;;;22.23;59.04;96292.34;4155383;34;19903;-86
2022/08/12 10:47:01;;;;;;;;;;;22.90;63.60;;;22.23;59.43;96291.53;4178020;34;19910;-85
2022/08/12 10:49:33;;;;;;;;;;;22.80;63.50;;;22.21;58.86;96289.06;4192649;33;20108;-85
2022/08/12 10:52:02;;;;;;;;;;;22.80;63.70;;;22.21;58.88;96289.06;4182716;33;20551;-86
2022/08/12 10:54:30;;;;;;;;;;;22.80;63.70;;;22.21;59.05;96288.28;4205747;33;19980;-86
2022/08/12 10:56:59;;;;;;;;;;;22.80;63.70;;;22.20;59.36;96295.00;4205767;33;19974;-85
2022/08/12 10:59:29;;;;;;;;;;;22.80;63.80;;;22.20;59.14;96290.22;4206526;33;20130;-86
2022/08/12 11:01:59;;;;;;;;;;;22.80;63.80;;;22.19;59.00;96280.28;4205598;33;20013;-86
2022/08/12 11:04:29;;;;;;;;;;;22.80;63.60;;;22.20;59.13;96287.44;4182704;33;20119;-86
2022/08/12 11:06:58;;;;;;;;;;;22.80;63.60;;;22.19;59.11;96279.44;4206608;33;19909;-86
2022/08/12 11:09:30;;;;;;;;;;;22.80;63.80;;;22.19;59.04;96280.28;4205610;33;20142;-85
2022/08/12 11:11:59;;;;;;;;;;;22.80;63.60;;;22.18;59.21;96277.81;4206314;33;19910;-86
2022/08/12 11:14:30;;;;;;;;;;;22.80;63.50;;;22.19;59.13;96276.66;4205326;33;19911;-85
2022/08/12 11:17:01;;;;;;;;;;;22.80;63.50;;;22.18;58.97;96280.59;4182273;33;19903;-86
2022/08/12 11:19:31;;;;;;;;;;;22.80;63.60;;;22.18;58.83;96275.00;4181174;33;20017;-86
2022/08/12 11:22:00;;;;;;;;;;;22.80;63.50;;;22.17;58.92;96276.16;4205197;33;19903;-86
2022/08/12 11:24:28;;;;;;;;;;;22.80;63.50;;;22.18;58.84;96283.38;4205437;33;19946;-85
2022/08/12 11:26:57;;;;;;;;;;;22.80;63.50;;;22.18;58.75;96275.84;4205400;33;19902;-85
2022/08/12 11:29:27;;;;;;;;;;;22.80;63.60;;;22.18;59.03;96277.81;4205339;33;20146;-86
2022/08/12 11:31:55;;;;;;;;;;;22.80;63.60;;;22.18;59.09;96272.22;4205236;33;20121;-86
2022/08/12 11:34:25;;;;;;;;;;;22.80;63.60;;;22.17;59.28;96277.00;4204832;33;19902;-86
2022/08/12 11:36:55;;;;;;;;;;;22.80;63.70;;;22.18;59.31;96270.28;4205425;33;19909;-86
2022/08/12 11:39:24;;;;;;;;;;;22.80;63.70;;;22.18;59.17;96272.22;4205925;33;19902;-85
2022/08/12 11:41:53;;;;;;;;;;;22.80;63.60;;;22.19;58.65;96269.13;4206157;33;20034;-86
2022/08/12 11:44:21;;;;;;;;;;;22.80;63.60;;;22.18;59.32;96272.22;4205768;33;19903;-85
2022/08/12 11:46:50;;;;;;;;;;;22.80;63.70;;;22.20;59.12;96269.91;4206134;33;19926;-85
2022/08/12 11:49:19;;;;;;;;;;;22.80;63.50;;;22.20;59.22;96272.69;4206057;33;19909;-86
2022/08/12 11:51:49;;;;;;;;;;;22.80;63.60;;;22.20;58.96;96276.28;4205161;33;19908;-86
2022/08/12 11:54:17;;;;;;;;;;;22.80;63.60;;;22.20;59.15;96264.34;4204660;33;19903;-86
2022/08/12 11:56:46;;;;;;;;;;;22.80;63.60;;;22.19;58.73;96269.13;4205196;33;20331;-86
2022/08/12 11:59:14;;;;;;;;;;;22.80;63.50;;;22.19;58.80;96269.13;4204940;33;19903;-86
2022/08/12 12:01:43;;;;;;;;;;;22.80;63.60;;;22.18;58.87;96263.88;4205986;33;19995;-85
2022/08/12 12:04:12;;;;;;;;;;;22.80;63.60;;;22.17;59.16;96265.84;4181866;33;19902;-85
2022/08/12 12:06:40;;;;;;;;;;;22.80;63.60;;;22.16;58.82;96268.97;4204960;33;19910;-85
2022/08/12 12:09:10;;;;;;;;;;;22.80;63.60;;;22.16;58.76;96266.19;4204813;33;20060;-86
2022/08/12 12:11:39;;;;;;;;;;;22.80;63.60;;;22.14;59.13;96255.38;4204853;33;20057;-86
2022/08/12 12:14:07;;;;;;;;;;;22.80;63.70;;;22.15;58.94;96258.97;4204507;33;20155;-85
2022/08/12 12:16:36;;;;;;;;;;;22.80;63.60;;;22.14;59.12;96257.38;4181987;33;19903;-85
2022/08/12 12:19:05;;;;;;;;;;;22.70;63.60;;;22.15;59.11;96256.19;4205711;33;19926;-86
2022/08/12 12:21:34;;;;;;;;;;;22.80;63.80;;;22.16;59.15;96253.06;4204880;33;20279;-86
2022/08/12 12:24:02;;;;;;;;;;;22.70;63.90;;;22.15;58.94;96250.59;4181154;33;20357;-86
2022/08/12 12:26:32;;;;;;;;;;;22.80;63.70;;;22.15;59.23;96245.03;4204888;33;20067;-86
2022/08/12 12:29:01;;;;;;;;;;;22.80;63.70;;;22.15;59.35;96257.00;4203419;33;19903;-86
2022/08/12 12:31:31;;;;;;;;;;;22.80;63.80;;;22.15;59.19;96245.03;4205881;33;20141;-86
2022/08/12 12:34:00;;;;;;;;;;;22.80;63.80;;;22.15;59.08;96245.03;4207729;33;19958;-86
2022/08/12 12:36:28;;;;;;;;;;;22.80;63.80;;;22.14;59.13;96243.44;4184331;33;19906;-86
2022/08/12 12:38:57;;;;;;;;;;;22.70;63.80;;;22.14;59.41;96240.63;4208043;33;20103;-86
2022/08/12 12:41:26;;;;;;;;;;;22.70;63.80;;;22.13;59.28;96239.00;4208067;33;19909;-86
2022/08/12 12:43:56;;;;;;;;;;;22.70;63.80;;;22.14;59.43;96237.84;4206805;33;19903;-86
2022/08/12 12:46:24;;;;;;;;;;;22.70;64.00;;;22.13;59.09;96231.44;4207167;33;20192;-87
2022/08/12 12:48:53;;;;;;;;;;;22.70;63.80;;;22.15;59.18;96233.88;4207180;33;19909;-85
2022/08/12 12:51:21;;;;;;;;;;;22.70;63.70;;;22.16;59.33;96235.50;4183924;33;19903;-86
2022/08/12 12:53:50;;;;;;;;;;;22.80;63.80;;;22.15;59.11;96228.31;4206507;33;19903;-86
2022/08/12 12:56:21;;;;;;;;;;;22.80;63.70;;;22.16;59.25;96224.34;4207095;33;19925;-87
2022/08/12 12:58:50;;;;;;;;;;;22.80;63.90;;;22.17;59.30;96220.41;4184298;33;20222;-86
2022/08/12 13:01:24;;;;;;;;;;;22.80;64.00;;;22.16;58.97;96219.59;4206998;33;19910;-86
2022/08/12 13:03:55;;;;;;;;;;;22.80;63.80;;;22.18;59.05;96216.47;4183394;33;19903;-85
2022/08/12 13:06:28;;;;;;;;;;;22.80;63.80;;;22.17;59.07;96223.19;4207929;33;20295;-85
2022/08/12 13:08:57;;;;;;;;;;;22.80;63.80;;;22.18;59.29;96211.72;4207859;33;19903;-85
2022/08/12 13:11:27;;;;;;;;;;;22.80;63.80;;;22.19;58.89;96206.94;4184010;33;20057;-86
2022/08/12 13:13:56;;;;;;;;;;;22.80;63.70;;;22.19;59.20;96213.34;4183214;33;20377;-86
2022/08/12 13:16:28;;;;;;;;;;;22.80;63.70;;;22.20;59.02;96209.38;4207739;33;20232;-86
2022/08/12 13:18:57;;;;;;;;;;;22.80;63.60;;;22.19;59.08;96201.38;4206690;33;19902;-86
2022/08/12 13:21:28;;;;;;;;;;;22.80;63.70;;;22.18;59.14;96202.53;4183920;33;19910;-85
2022/08/12 13:23:57;;;;;;;;;;;22.80;63.70;;;22.19;59.23;96193.00;4183167;33;20457;-86
2022/08/12 13:26:31;;;;;;;;;;;22.80;63.60;;;22.18;58.92;96188.59;4207701;33;20102;-86
2022/08/12 13:29:00;;;;;;;;;;;22.80;63.60;;;22.18;59.20;96191.38;4183519;33;20064;-86
2022/08/12 13:31:30;;;;;;;;;;;22.80;63.70;;;22.19;59.19;96190.22;4206475;33;19978;-85